Wolftown, Virginia
Current Conditions -  °F | °C
As of 11:53 PM on Saturday 22 Nov 2014 (Local Time) from KCHO Reporting Station
Clear Clear  
Wind Chill: 30°   Ceiling: Unl
Heat Index: 37°   Visibility: 10mi
Dew Point: 19°   Wind: 10mph
Humidity: 48%   Direction: 200°SSW
Pressure: 30.25"   Gusts: NA
Location:  38.36°N, 78.35°W
Report Text: KCHO 230453Z AUTO 20009KT 10SM CLR 03/M07 A3025 RMK AO2 SLP245 T00281072 401061078
Loading
Personal Weather Stations






























Interactive Weather Map New forecast layout! Learn more

10-Day Weather Forecast

Advertisements
Track Severe Weather on mobile